sensor_id;sensor_type;location;lat;lon;timestamp;P1;durP1;ratioP1;P2;durP2;ratioP2
65368;SDS011;51970;53.484;49.488;2023-03-23T00:01:18;29.77;;;15.02;;
65368;SDS011;51970;53.484;49.488;2023-03-23T00:03:51;30.52;;;13.18;;
65368;SDS011;51970;53.484;49.488;2023-03-23T00:06:19;28.02;;;15.52;;
65368;SDS011;51970;53.484;49.488;2023-03-23T00:08:49;28.70;;;14.25;;
65368;SDS011;51970;53.484;49.488;2023-03-23T00:11:22;25.88;;;14.85;;
65368;SDS011;51970;53.484;49.488;2023-03-23T00:13:52;35.22;;;15.20;;
65368;SDS011;51970;53.484;49.488;2023-03-23T00:16:23;26.77;;;14.00;;
65368;SDS011;51970;53.484;49.488;2023-03-23T00:18:58;30.42;;;14.27;;
65368;SDS011;51970;53.484;49.488;2023-03-23T00:21:31;30.20;;;13.95;;
65368;SDS011;51970;53.484;49.488;2023-03-23T00:24:07;37.55;;;15.45;;
65368;SDS011;51970;53.484;49.488;2023-03-23T00:26:46;28.95;;;14.07;;
65368;SDS011;51970;53.484;49.488;2023-03-23T00:29:16;34.90;;;14.98;;
65368;SDS011;51970;53.484;49.488;2023-03-23T00:31:52;31.30;;;17.05;;
65368;SDS011;51970;53.484;49.488;2023-03-23T00:34:19;34.08;;;15.40;;
65368;SDS011;51970;53.484;49.488;2023-03-23T00:36:51;30.45;;;16.15;;
65368;SDS011;51970;53.484;49.488;2023-03-23T00:39:22;29.02;;;16.08;;
65368;SDS011;51970;53.484;49.488;2023-03-23T00:41:55;34.47;;;17.23;;
65368;SDS011;51970;53.484;49.488;2023-03-23T00:44:27;32.40;;;16.42;;
65368;SDS011;51970;53.484;49.488;2023-03-23T00:46:56;36.83;;;17.33;;
65368;SDS011;51970;53.484;49.488;2023-03-23T00:49:24;33.28;;;16.52;;
65368;SDS011;51970;53.484;49.488;2023-03-23T00:51:52;41.75;;;15.20;;
65368;SDS011;51970;53.484;49.488;2023-03-23T00:54:21;35.25;;;17.35;;
65368;SDS011;51970;53.484;49.488;2023-03-23T00:56:49;28.35;;;16.55;;
65368;SDS011;51970;53.484;49.488;2023-03-23T00:59:15;29.67;;;15.32;;
65368;SDS011;51970;53.484;49.488;2023-03-23T01:01:48;26.25;;;16.25;;
65368;SDS011;51970;53.484;49.488;2023-03-23T01:04:15;34.72;;;17.08;;
65368;SDS011;51970;53.484;49.488;2023-03-23T01:06:42;40.30;;;18.90;;
65368;SDS011;51970;53.484;49.488;2023-03-23T01:09:13;43.28;;;16.50;;
65368;SDS011;51970;53.484;49.488;2023-03-23T01:14:09;29.55;;;15.50;;
65368;SDS011;51970;53.484;49.488;2023-03-23T01:16:35;35.33;;;14.50;;
65368;SDS011;51970;53.484;49.488;2023-03-23T01:19:01;29.02;;;16.50;;
65368;SDS011;51970;53.484;49.488;2023-03-23T01:21:28;26.65;;;17.17;;
65368;SDS011;51970;53.484;49.488;2023-03-23T01:23:55;30.48;;;16.20;;
65368;SDS011;51970;53.484;49.488;2023-03-23T01:26:21;32.95;;;17.90;;
65368;SDS011;51970;53.484;49.488;2023-03-23T01:28:50;33.67;;;16.80;;
65368;SDS011;51970;53.484;49.488;2023-03-23T01:31:17;26.38;;;14.30;;
65368;SDS011;51970;53.484;49.488;2023-03-23T01:33:46;35.05;;;18.02;;
65368;SDS011;51970;53.484;49.488;2023-03-23T01:36:13;34.70;;;17.10;;
65368;SDS011;51970;53.484;49.488;2023-03-23T01:38:42;32.70;;;17.00;;
65368;SDS011;51970;53.484;49.488;2023-03-23T01:41:10;34.88;;;15.75;;
65368;SDS011;51970;53.484;49.488;2023-03-23T01:46:30;28.52;;;15.75;;
65368;SDS011;51970;53.484;49.488;2023-03-23T01:49:35;38.10;;;17.40;;
65368;SDS011;51970;53.484;49.488;2023-03-23T01:52:00;31.30;;;16.63;;
65368;SDS011;51970;53.484;49.488;2023-03-23T01:54:32;34.33;;;16.25;;
65368;SDS011;51970;53.484;49.488;2023-03-23T01:57:01;32.80;;;16.40;;
65368;SDS011;51970;53.484;49.488;2023-03-23T01:59:29;29.67;;;16.27;;
65368;SDS011;51970;53.484;49.488;2023-03-23T02:01:57;23.92;;;15.38;;
65368;SDS011;51970;53.484;49.488;2023-03-23T02:04:28;28.08;;;15.35;;
65368;SDS011;51970;53.484;49.488;2023-03-23T02:07:07;33.92;;;14.88;;
65368;SDS011;51970;53.484;49.488;2023-03-23T02:09:36;27.33;;;14.40;;
65368;SDS011;51970;53.484;49.488;2023-03-23T02:12:04;25.00;;;14.15;;
65368;SDS011;51970;53.484;49.488;2023-03-23T02:14:32;25.88;;;14.05;;
65368;SDS011;51970;53.484;49.488;2023-03-23T02:19:55;23.52;;;14.25;;
65368;SDS011;51970;53.484;49.488;2023-03-23T02:22:56;32.97;;;13.05;;
65368;SDS011;51970;53.484;49.488;2023-03-23T02:25:45;32.67;;;16.05;;
65368;SDS011;51970;53.484;49.488;2023-03-23T02:31:42;33.15;;;16.73;;
65368;SDS011;51970;53.484;49.488;2023-03-23T02:36:58;38.33;;;16.23;;
65368;SDS011;51970;53.484;49.488;2023-03-23T02:39:37;38.25;;;17.77;;
65368;SDS011;51970;53.484;49.488;2023-03-23T02:42:16;32.42;;;15.88;;
65368;SDS011;51970;53.484;49.488;2023-03-23T02:44:46;27.20;;;14.50;;
65368;SDS011;51970;53.484;49.488;2023-03-23T02:47:22;23.83;;;13.90;;
65368;SDS011;51970;53.484;49.488;2023-03-23T02:49:55;38.47;;;17.38;;
65368;SDS011;51970;53.484;49.488;2023-03-23T02:52:26;29.73;;;14.35;;
65368;SDS011;51970;53.484;49.488;2023-03-23T02:54:57;25.13;;;14.45;;
65368;SDS011;51970;53.484;49.488;2023-03-23T02:57:28;28.38;;;14.40;;
65368;SDS011;51970;53.484;49.488;2023-03-23T02:59:55;20.88;;;12.50;;
65368;SDS011;51970;53.484;49.488;2023-03-23T03:04:53;23.20;;;13.43;;
65368;SDS011;51970;53.484;49.488;2023-03-23T03:08:06;20.95;;;11.55;;
65368;SDS011;51970;53.484;49.488;2023-03-23T03:11:18;18.67;;;12.00;;
65368;SDS011;51970;53.484;49.488;2023-03-23T03:17:03;26.38;;;14.02;;
65368;SDS011;51970;53.484;49.488;2023-03-23T03:20:04;22.48;;;13.52;;
65368;SDS011;51970;53.484;49.488;2023-03-23T03:22:40;22.42;;;12.50;;
65368;SDS011;51970;53.484;49.488;2023-03-23T03:25:09;21.40;;;13.82;;
65368;SDS011;51970;53.484;49.488;2023-03-23T03:27:42;32.17;;;14.32;;
65368;SDS011;51970;53.484;49.488;2023-03-23T03:30:25;31.63;;;13.80;;
65368;SDS011;51970;53.484;49.488;2023-03-23T03:33:55;34.30;;;18.60;;
65368;SDS011;51970;53.484;49.488;2023-03-23T03:37:47;38.78;;;17.70;;
65368;SDS011;51970;53.484;49.488;2023-03-23T03:40:15;36.97;;;16.85;;
65368;SDS011;51970;53.484;49.488;2023-03-23T03:42:44;24.33;;;11.63;;
65368;SDS011;51970;53.484;49.488;2023-03-23T03:45:24;31.90;;;14.85;;
65368;SDS011;51970;53.484;49.488;2023-03-23T03:48:17;28.00;;;14.27;;
65368;SDS011;51970;53.484;49.488;2023-03-23T03:50:49;25.08;;;12.88;;
65368;SDS011;51970;53.484;49.488;2023-03-23T03:53:17;29.10;;;15.32;;
65368;SDS011;51970;53.484;49.488;2023-03-23T03:55:56;28.63;;;15.15;;
65368;SDS011;51970;53.484;49.488;2023-03-23T03:58:26;33.28;;;14.02;;
65368;SDS011;51970;53.484;49.488;2023-03-23T04:01:03;31.55;;;17.08;;
65368;SDS011;51970;53.484;49.488;2023-03-23T04:03:35;26.40;;;15.40;;
65368;SDS011;51970;53.484;49.488;2023-03-23T04:06:14;34.17;;;17.50;;
65368;SDS011;51970;53.484;49.488;2023-03-23T04:09:11;25.52;;;16.38;;
65368;SDS011;51970;53.484;49.488;2023-03-23T04:12:02;32.03;;;16.90;;
65368;SDS011;51970;53.484;49.488;2023-03-23T04:17:46;26.20;;;13.75;;
65368;SDS011;51970;53.484;49.488;2023-03-23T04:20:21;27.58;;;13.55;;
65368;SDS011;51970;53.484;49.488;2023-03-23T04:22:49;32.35;;;14.38;;
65368;SDS011;51970;53.484;49.488;2023-03-23T04:25:46;30.80;;;10.60;;
65368;SDS011;51970;53.484;49.488;2023-03-23T04:28:51;26.52;;;13.95;;
65368;SDS011;51970;53.484;49.488;2023-03-23T04:31:31;24.80;;;14.10;;
65368;SDS011;51970;53.484;49.488;2023-03-23T04:34:22;34.00;;;15.18;;
65368;SDS011;51970;53.484;49.488;2023-03-23T04:39:30;23.75;;;12.90;;
65368;SDS011;51970;53.484;49.488;2023-03-23T04:41:59;26.88;;;13.55;;
65368;SDS011;51970;53.484;49.488;2023-03-23T04:45:12;27.55;;;13.63;;
65368;SDS011;51970;53.484;49.488;2023-03-23T04:47:49;24.00;;;15.15;;
65368;SDS011;51970;53.484;49.488;2023-03-23T04:50:31;21.08;;;9.85;;
65368;SDS011;51970;53.484;49.488;2023-03-23T04:53:02;26.15;;;13.30;;
65368;SDS011;51970;53.484;49.488;2023-03-23T04:59:27;30.75;;;13.90;;
65368;SDS011;51970;53.484;49.488;2023-03-23T05:02:14;28.67;;;10.75;;
65368;SDS011;51970;53.484;49.488;2023-03-23T05:04:46;26.35;;;12.77;;
65368;SDS011;51970;53.484;49.488;2023-03-23T05:07:14;32.15;;;15.35;;
65368;SDS011;51970;53.484;49.488;2023-03-23T05:09:54;31.08;;;14.50;;
65368;SDS011;51970;53.484;49.488;2023-03-23T05:12:44;39.00;;;14.77;;
65368;SDS011;51970;53.484;49.488;2023-03-23T05:15:14;28.73;;;13.07;;
65368;SDS011;51970;53.484;49.488;2023-03-23T05:17:42;27.70;;;9.75;;
65368;SDS011;51970;53.484;49.488;2023-03-23T05:23:21;35.72;;;14.95;;
65368;SDS011;51970;53.484;49.488;2023-03-23T05:25:54;32.38;;;12.95;;
65368;SDS011;51970;53.484;49.488;2023-03-23T05:28:26;27.90;;;13.43;;
65368;SDS011;51970;53.484;49.488;2023-03-23T05:31:00;39.03;;;15.57;;
65368;SDS011;51970;53.484;49.488;2023-03-23T05:33:51;30.77;;;14.07;;
65368;SDS011;51970;53.484;49.488;2023-03-23T05:36:32;27.65;;;14.93;;
65368;SDS011;51970;53.484;49.488;2023-03-23T05:39:23;32.67;;;15.30;;
65368;SDS011;51970;53.484;49.488;2023-03-23T05:41:49;28.80;;;14.85;;
65368;SDS011;51970;53.484;49.488;2023-03-23T05:44:21;21.75;;;11.23;;
65368;SDS011;51970;53.484;49.488;2023-03-23T05:47:03;21.98;;;13.38;;
65368;SDS011;51970;53.484;49.488;2023-03-23T05:49:34;31.67;;;15.02;;
65368;SDS011;51970;53.484;49.488;2023-03-23T05:52:02;21.83;;;13.13;;
65368;SDS011;51970;53.484;49.488;2023-03-23T05:54:38;24.83;;;12.77;;
65368;SDS011;51970;53.484;49.488;2023-03-23T05:57:15;22.77;;;13.90;;
65368;SDS011;51970;53.484;49.488;2023-03-23T05:59:50;24.20;;;9.65;;
65368;SDS011;51970;53.484;49.488;2023-03-23T06:03:07;29.42;;;14.10;;
65368;SDS011;51970;53.484;49.488;2023-03-23T06:06:17;26.95;;;12.30;;
65368;SDS011;51970;53.484;49.488;2023-03-23T06:09:20;26.95;;;13.88;;
65368;SDS011;51970;53.484;49.488;2023-03-23T06:11:47;35.90;;;15.73;;
65368;SDS011;51970;53.484;49.488;2023-03-23T06:14:19;26.73;;;13.35;;
65368;SDS011;51970;53.484;49.488;2023-03-23T06:16:47;31.25;;;13.55;;
65368;SDS011;51970;53.484;49.488;2023-03-23T06:19:18;23.63;;;12.57;;
65368;SDS011;51970;53.484;49.488;2023-03-23T06:22:08;32.88;;;9.82;;
65368;SDS011;51970;53.484;49.488;2023-03-23T06:24:36;32.47;;;12.02;;
65368;SDS011;51970;53.484;49.488;2023-03-23T06:27:04;32.60;;;13.52;;
65368;SDS011;51970;53.484;49.488;2023-03-23T06:29:33;39.28;;;13.07;;
65368;SDS011;51970;53.484;49.488;2023-03-23T06:32:00;21.35;;;10.20;;
65368;SDS011;51970;53.484;49.488;2023-03-23T06:35:12;29.55;;;14.52;;
65368;SDS011;51970;53.484;49.488;2023-03-23T06:40:40;20.05;;;8.48;;
65368;SDS011;51970;53.484;49.488;2023-03-23T06:43:13;26.33;;;14.18;;
65368;SDS011;51970;53.484;49.488;2023-03-23T06:45:44;21.40;;;13.27;;
65368;SDS011;51970;53.484;49.488;2023-03-23T06:48:21;26.25;;;10.80;;
65368;SDS011;51970;53.484;49.488;2023-03-23T06:51:30;18.88;;;11.65;;
65368;SDS011;51970;53.484;49.488;2023-03-23T06:54:17;20.77;;;9.68;;
65368;SDS011;51970;53.484;49.488;2023-03-23T06:56:47;19.50;;;11.32;;
65368;SDS011;51970;53.484;49.488;2023-03-23T06:59:56;26.10;;;10.95;;
65368;SDS011;51970;53.484;49.488;2023-03-23T07:03:07;16.92;;;10.70;;
65368;SDS011;51970;53.484;49.488;2023-03-23T07:05:35;23.45;;;11.25;;
65368;SDS011;51970;53.484;49.488;2023-03-23T07:08:25;26.38;;;11.35;;
65368;SDS011;51970;53.484;49.488;2023-03-23T07:10:59;15.50;;;9.48;;
65368;SDS011;51970;53.484;49.488;2023-03-23T07:14:08;18.13;;;9.52;;
65368;SDS011;51970;53.484;49.488;2023-03-23T07:16:48;17.30;;;10.68;;
65368;SDS011;51970;53.484;49.488;2023-03-23T07:19:21;24.60;;;9.85;;
65368;SDS011;51970;53.484;49.488;2023-03-23T07:22:19;22.45;;;10.48;;
65368;SDS011;51970;53.484;49.488;2023-03-23T07:24:54;13.95;;;8.30;;
65368;SDS011;51970;53.484;49.488;2023-03-23T07:27:40;20.02;;;9.30;;
65368;SDS011;51970;53.484;49.488;2023-03-23T07:30:33;15.73;;;5.55;;
65368;SDS011;51970;53.484;49.488;2023-03-23T07:33:32;17.45;;;8.82;;
65368;SDS011;51970;53.484;49.488;2023-03-23T07:36:03;16.85;;;8.02;;
65368;SDS011;51970;53.484;49.488;2023-03-23T07:38:29;24.58;;;8.52;;
65368;SDS011;51970;53.484;49.488;2023-03-23T07:41:15;35.17;;;8.63;;
65368;SDS011;51970;53.484;49.488;2023-03-23T07:43:51;10.98;;;5.43;;
65368;SDS011;51970;53.484;49.488;2023-03-23T07:46:22;22.05;;;8.93;;
65368;SDS011;51970;53.484;49.488;2023-03-23T07:48:50;19.98;;;5.05;;
65368;SDS011;51970;53.484;49.488;2023-03-23T07:51:23;18.58;;;7.78;;
65368;SDS011;51970;53.484;49.488;2023-03-23T07:54:10;15.27;;;7.00;;
65368;SDS011;51970;53.484;49.488;2023-03-23T07:56:59;15.20;;;7.93;;
65368;SDS011;51970;53.484;49.488;2023-03-23T07:59:39;22.58;;;9.35;;
65368;SDS011;51970;53.484;49.488;2023-03-23T08:02:20;12.95;;;7.15;;
65368;SDS011;51970;53.484;49.488;2023-03-23T08:05:51;15.20;;;7.15;;
65368;SDS011;51970;53.484;49.488;2023-03-23T08:08:50;9.45;;;6.78;;
65368;SDS011;51970;53.484;49.488;2023-03-23T08:12:09;10.43;;;6.78;;
65368;SDS011;51970;53.484;49.488;2023-03-23T08:15:28;11.32;;;6.88;;
65368;SDS011;51970;53.484;49.488;2023-03-23T08:18:55;12.75;;;7.60;;
65368;SDS011;51970;53.484;49.488;2023-03-23T08:21:49;11.40;;;6.43;;
65368;SDS011;51970;53.484;49.488;2023-03-23T08:24:44;17.88;;;6.82;;
65368;SDS011;51970;53.484;49.488;2023-03-23T08:28:11;16.63;;;7.07;;
65368;SDS011;51970;53.484;49.488;2023-03-23T08:31:59;11.07;;;6.05;;
65368;SDS011;51970;53.484;49.488;2023-03-23T08:35:03;21.08;;;7.43;;
65368;SDS011;51970;53.484;49.488;2023-03-23T08:38:44;22.55;;;6.90;;
65368;SDS011;51970;53.484;49.488;2023-03-23T08:42:12;21.00;;;6.95;;
65368;SDS011;51970;53.484;49.488;2023-03-23T08:44:49;15.15;;;7.45;;
65368;SDS011;51970;53.484;49.488;2023-03-23T08:47:44;18.33;;;7.10;;
65368;SDS011;51970;53.484;49.488;2023-03-23T08:50:55;19.75;;;7.70;;
65368;SDS011;51970;53.484;49.488;2023-03-23T08:53:26;12.27;;;7.15;;
65368;SDS011;51970;53.484;49.488;2023-03-23T08:56:38;25.10;;;7.50;;
65368;SDS011;51970;53.484;49.488;2023-03-23T09:00:20;21.05;;;7.05;;
65368;SDS011;51970;53.484;49.488;2023-03-23T09:08:08;15.68;;;7.20;;
65368;SDS011;51970;53.484;49.488;2023-03-23T09:10:48;22.88;;;6.78;;
65368;SDS011;51970;53.484;49.488;2023-03-23T09:13:31;14.70;;;7.03;;
65368;SDS011;51970;53.484;49.488;2023-03-23T09:16:42;10.48;;;7.70;;
65368;SDS011;51970;53.484;49.488;2023-03-23T09:19:44;11.52;;;7.10;;
65368;SDS011;51970;53.484;49.488;2023-03-23T09:23:54;15.63;;;7.22;;
65368;SDS011;51970;53.484;49.488;2023-03-23T09:28:13;24.83;;;4.00;;
65368;SDS011;51970;53.484;49.488;2023-03-23T09:31:40;11.30;;;4.65;;
65368;SDS011;51970;53.484;49.488;2023-03-23T09:35:27;22.88;;;6.35;;
65368;SDS011;51970;53.484;49.488;2023-03-23T09:38:19;12.93;;;7.35;;
65368;SDS011;51970;53.484;49.488;2023-03-23T09:54:28;13.48;;;4.75;;
65368;SDS011;51970;53.484;49.488;2023-03-23T09:56:59;13.95;;;7.72;;
65368;SDS011;51970;53.484;49.488;2023-03-23T09:59:47;12.93;;;7.30;;
65368;SDS011;51970;53.484;49.488;2023-03-23T10:03:14;9.30;;;6.68;;
65368;SDS011;51970;53.484;49.488;2023-03-23T10:06:21;12.00;;;6.47;;
65368;SDS011;51970;53.484;49.488;2023-03-23T10:10:00;13.73;;;6.95;;
65368;SDS011;51970;53.484;49.488;2023-03-23T10:12:36;15.35;;;5.82;;
65368;SDS011;51970;53.484;49.488;2023-03-23T10:15:36;16.63;;;6.70;;
65368;SDS011;51970;53.484;49.488;2023-03-23T10:24:51;14.18;;;7.40;;
65368;SDS011;51970;53.484;49.488;2023-03-23T10:28:18;16.90;;;7.22;;
65368;SDS011;51970;53.484;49.488;2023-03-23T10:31:35;12.32;;;6.18;;
65368;SDS011;51970;53.484;49.488;2023-03-23T10:40:11;11.05;;;5.07;;
65368;SDS011;51970;53.484;49.488;2023-03-23T10:43:25;13.30;;;6.57;;
65368;SDS011;51970;53.484;49.488;2023-03-23T10:46:27;13.25;;;5.05;;
65368;SDS011;51970;53.484;49.488;2023-03-23T10:49:50;13.70;;;7.80;;
65368;SDS011;51970;53.484;49.488;2023-03-23T10:52:45;9.30;;;4.35;;
65368;SDS011;51970;53.484;49.488;2023-03-23T10:56:42;20.40;;;6.60;;
65368;SDS011;51970;53.484;49.488;2023-03-23T10:59:26;16.63;;;5.78;;
65368;SDS011;51970;53.484;49.488;2023-03-23T11:02:14;14.70;;;4.50;;
65368;SDS011;51970;53.484;49.488;2023-03-23T11:04:56;13.80;;;7.65;;
65368;SDS011;51970;53.484;49.488;2023-03-23T11:08:11;17.33;;;8.48;;
65368;SDS011;51970;53.484;49.488;2023-03-23T11:11:11;15.30;;;8.48;;
65368;SDS011;51970;53.484;49.488;2023-03-23T11:14:38;12.45;;;5.80;;
65368;SDS011;51970;53.484;49.488;2023-03-23T11:17:39;13.60;;;6.18;;
65368;SDS011;51970;53.484;49.488;2023-03-23T11:20:58;18.42;;;8.75;;
65368;SDS011;51970;53.484;49.488;2023-03-23T11:24:26;17.05;;;8.43;;
65368;SDS011;51970;53.484;49.488;2023-03-23T11:27:07;14.80;;;5.75;;
65368;SDS011;51970;53.484;49.488;2023-03-23T11:33:47;18.42;;;10.77;;
65368;SDS011;51970;53.484;49.488;2023-03-23T11:39:34;19.30;;;9.38;;
65368;SDS011;51970;53.484;49.488;2023-03-23T11:51:20;17.88;;;12.15;;
65368;SDS011;51970;53.484;49.488;2023-03-23T11:54:52;18.92;;;9.68;;
65368;SDS011;51970;53.484;49.488;2023-03-23T11:58:09;17.95;;;9.60;;
65368;SDS011;51970;53.484;49.488;2023-03-23T12:01:38;19.85;;;9.73;;
65368;SDS011;51970;53.484;49.488;2023-03-23T12:03:52;23.63;;;10.27;;
65368;SDS011;51970;53.484;49.488;2023-03-23T12:20:21;29.50;;;8.52;;
65368;SDS011;51970;53.484;49.488;2023-03-23T12:29:06;19.00;;;10.70;;
65368;SDS011;51970;53.484;49.488;2023-03-23T12:34:53;15.57;;;10.27;;
65368;SDS011;51970;53.484;49.488;2023-03-23T12:38:01;16.17;;;9.68;;
65368;SDS011;51970;53.484;49.488;2023-03-23T12:54:39;20.63;;;10.15;;
65368;SDS011;51970;53.484;49.488;2023-03-23T13:03:53;20.88;;;11.18;;
65368;SDS011;51970;53.484;49.488;2023-03-23T13:07:28;41.78;;;12.35;;
65368;SDS011;51970;53.484;49.488;2023-03-23T13:10:46;21.48;;;11.40;;
65368;SDS011;51970;53.484;49.488;2023-03-23T13:13:19;27.08;;;12.23;;
65368;SDS011;51970;53.484;49.488;2023-03-23T13:16:32;23.55;;;11.55;;
65368;SDS011;51970;53.484;49.488;2023-03-23T13:19:19;17.17;;;11.20;;
65368;SDS011;51970;53.484;49.488;2023-03-23T13:25:40;21.05;;;11.15;;
65368;SDS011;51970;53.484;49.488;2023-03-23T13:31:36;30.92;;;13.35;;
65368;SDS011;51970;53.484;49.488;2023-03-23T13:34:52;24.02;;;9.73;;
65368;SDS011;51970;53.484;49.488;2023-03-23T13:37:31;28.80;;;10.18;;
65368;SDS011;51970;53.484;49.488;2023-03-23T13:40:41;23.38;;;13.57;;
65368;SDS011;51970;53.484;49.488;2023-03-23T13:43:32;25.52;;;11.90;;
65368;SDS011;51970;53.484;49.488;2023-03-23T13:46:22;30.75;;;12.75;;
65368;SDS011;51970;53.484;49.488;2023-03-23T13:49:44;23.52;;;9.60;;
65368;SDS011;51970;53.484;49.488;2023-03-23T13:52:47;24.58;;;12.90;;
65368;SDS011;51970;53.484;49.488;2023-03-23T13:59:48;29.50;;;13.18;;
65368;SDS011;51970;53.484;49.488;2023-03-23T14:08:35;22.95;;;12.10;;
65368;SDS011;51970;53.484;49.488;2023-03-23T14:11:23;25.25;;;13.95;;
65368;SDS011;51970;53.484;49.488;2023-03-23T14:14:29;17.83;;;10.35;;
65368;SDS011;51970;53.484;49.488;2023-03-23T14:17:07;30.38;;;13.43;;
65368;SDS011;51970;53.484;49.488;2023-03-23T14:20:05;31.27;;;9.65;;
65368;SDS011;51970;53.484;49.488;2023-03-23T14:22:55;39.47;;;14.48;;
65368;SDS011;51970;53.484;49.488;2023-03-23T14:25:31;25.77;;;13.35;;
65368;SDS011;51970;53.484;49.488;2023-03-23T14:28:01;28.98;;;14.45;;
65368;SDS011;51970;53.484;49.488;2023-03-23T14:30:39;27.02;;;13.13;;
65368;SDS011;51970;53.484;49.488;2023-03-23T14:33:22;40.40;;;10.55;;
65368;SDS011;51970;53.484;49.488;2023-03-23T14:36:05;28.50;;;13.48;;
65368;SDS011;51970;53.484;49.488;2023-03-23T14:38:38;25.88;;;13.65;;
65368;SDS011;51970;53.484;49.488;2023-03-23T14:41:04;22.33;;;10.20;;
65368;SDS011;51970;53.484;49.488;2023-03-23T14:43:44;28.98;;;13.63;;
65368;SDS011;51970;53.484;49.488;2023-03-23T14:46:42;31.20;;;13.13;;
65368;SDS011;51970;53.484;49.488;2023-03-23T14:49:16;28.90;;;14.50;;
65368;SDS011;51970;53.484;49.488;2023-03-23T14:51:53;29.60;;;12.85;;
65368;SDS011;51970;53.484;49.488;2023-03-23T14:54:25;25.33;;;14.68;;
65368;SDS011;51970;53.484;49.488;2023-03-23T14:57:29;40.15;;;15.40;;
65368;SDS011;51970;53.484;49.488;2023-03-23T15:00:21;42.13;;;14.82;;
65368;SDS011;51970;53.484;49.488;2023-03-23T15:03:01;31.25;;;11.60;;
65368;SDS011;51970;53.484;49.488;2023-03-23T15:05:46;38.83;;;14.70;;
65368;SDS011;51970;53.484;49.488;2023-03-23T15:08:44;27.58;;;13.85;;
65368;SDS011;51970;53.484;49.488;2023-03-23T15:13:56;40.45;;;17.42;;
65368;SDS011;51970;53.484;49.488;2023-03-23T15:16:37;31.67;;;10.77;;
65368;SDS011;51970;53.484;49.488;2023-03-23T15:19:32;23.27;;;11.55;;
65368;SDS011;51970;53.484;49.488;2023-03-23T15:22:21;49.53;;;13.32;;
65368;SDS011;51970;53.484;49.488;2023-03-23T15:25:18;24.23;;;12.20;;
65368;SDS011;51970;53.484;49.488;2023-03-23T15:28:21;27.27;;;13.63;;
65368;SDS011;51970;53.484;49.488;2023-03-23T15:31:23;18.17;;;10.85;;
65368;SDS011;51970;53.484;49.488;2023-03-23T15:34:46;17.17;;;12.50;;
65368;SDS011;51970;53.484;49.488;2023-03-23T15:37:25;16.70;;;11.43;;
65368;SDS011;51970;53.484;49.488;2023-03-23T15:40:16;20.48;;;11.98;;
65368;SDS011;51970;53.484;49.488;2023-03-23T15:44:11;17.20;;;11.55;;
65368;SDS011;51970;53.484;49.488;2023-03-23T15:47:33;22.13;;;12.35;;
65368;SDS011;51970;53.484;49.488;2023-03-23T15:53:33;16.00;;;9.32;;
65368;SDS011;51970;53.484;49.488;2023-03-23T15:56:06;16.55;;;9.07;;
65368;SDS011;51970;53.484;49.488;2023-03-23T15:58:57;21.30;;;11.88;;
65368;SDS011;51970;53.484;49.488;2023-03-23T16:02:22;19.17;;;12.02;;
65368;SDS011;51970;53.484;49.488;2023-03-23T16:05:54;20.35;;;13.25;;
65368;SDS011;51970;53.484;49.488;2023-03-23T16:08:32;17.85;;;11.50;;
65368;SDS011;51970;53.484;49.488;2023-03-23T16:11:17;19.88;;;12.85;;
65368;SDS011;51970;53.484;49.488;2023-03-23T16:14:15;24.52;;;13.75;;
65368;SDS011;51970;53.484;49.488;2023-03-23T16:20:28;20.42;;;12.93;;
65368;SDS011;51970;53.484;49.488;2023-03-23T16:23:00;26.13;;;9.98;;
65368;SDS011;51970;53.484;49.488;2023-03-23T16:25:29;20.15;;;12.23;;
65368;SDS011;51970;53.484;49.488;2023-03-23T16:27:57;23.33;;;12.55;;
65368;SDS011;51970;53.484;49.488;2023-03-23T16:30:40;20.42;;;12.70;;
65368;SDS011;51970;53.484;49.488;2023-03-23T16:33:18;18.23;;;11.88;;
65368;SDS011;51970;53.484;49.488;2023-03-23T16:36:13;22.10;;;13.60;;
65368;SDS011;51970;53.484;49.488;2023-03-23T16:39:42;21.15;;;13.40;;
65368;SDS011;51970;53.484;49.488;2023-03-23T16:42:30;25.33;;;12.82;;
65368;SDS011;51970;53.484;49.488;2023-03-23T16:49:35;59.20;;;37.33;;
65368;SDS011;51970;53.484;49.488;2023-03-23T16:56:46;28.95;;;17.58;;
65368;SDS011;51970;53.484;49.488;2023-03-23T17:00:07;26.63;;;16.92;;
65368;SDS011;51970;53.484;49.488;2023-03-23T17:03:10;35.42;;;22.92;;
65368;SDS011;51970;53.484;49.488;2023-03-23T17:05:59;36.15;;;23.92;;
65368;SDS011;51970;53.484;49.488;2023-03-23T17:09:32;51.20;;;33.22;;
65368;SDS011;51970;53.484;49.488;2023-03-23T17:13:07;42.97;;;29.30;;
65368;SDS011;51970;53.484;49.488;2023-03-23T17:16:31;42.08;;;21.17;;
65368;SDS011;51970;53.484;49.488;2023-03-23T17:18:58;38.13;;;21.20;;
65368;SDS011;51970;53.484;49.488;2023-03-23T17:21:59;29.88;;;18.00;;
65368;SDS011;51970;53.484;49.488;2023-03-23T17:24:30;30.60;;;19.40;;
65368;SDS011;51970;53.484;49.488;2023-03-23T17:27:11;42.38;;;25.70;;
65368;SDS011;51970;53.484;49.488;2023-03-23T17:29:46;46.78;;;26.55;;
65368;SDS011;51970;53.484;49.488;2023-03-23T17:32:21;30.58;;;18.30;;
65368;SDS011;51970;53.484;49.488;2023-03-23T17:34:49;27.90;;;16.65;;
65368;SDS011;51970;53.484;49.488;2023-03-23T17:37:17;28.85;;;16.95;;
65368;SDS011;51970;53.484;49.488;2023-03-23T17:40:26;23.33;;;14.43;;
65368;SDS011;51970;53.484;49.488;2023-03-23T17:43:18;24.88;;;15.90;;
65368;SDS011;51970;53.484;49.488;2023-03-23T17:46:45;21.27;;;11.00;;
65368;SDS011;51970;53.484;49.488;2023-03-23T17:49:42;20.10;;;9.57;;
65368;SDS011;51970;53.484;49.488;2023-03-23T17:52:11;23.23;;;16.23;;
65368;SDS011;51970;53.484;49.488;2023-03-23T17:54:55;27.00;;;15.77;;
65368;SDS011;51970;53.484;49.488;2023-03-23T17:57:23;21.65;;;14.90;;
65368;SDS011;51970;53.484;49.488;2023-03-23T17:59:52;22.65;;;14.93;;
65368;SDS011;51970;53.484;49.488;2023-03-23T18:02:24;26.42;;;14.18;;
65368;SDS011;51970;53.484;49.488;2023-03-23T18:05:08;23.95;;;13.82;;
65368;SDS011;51970;53.484;49.488;2023-03-23T18:07:51;26.20;;;9.95;;
65368;SDS011;51970;53.484;49.488;2023-03-23T18:11:14;22.30;;;10.23;;
65368;SDS011;51970;53.484;49.488;2023-03-23T18:17:07;21.85;;;13.15;;
65368;SDS011;51970;53.484;49.488;2023-03-23T18:19:50;20.25;;;13.05;;
65368;SDS011;51970;53.484;49.488;2023-03-23T18:22:26;21.35;;;12.85;;
65368;SDS011;51970;53.484;49.488;2023-03-23T18:25:39;19.90;;;10.20;;
65368;SDS011;51970;53.484;49.488;2023-03-23T18:28:09;24.15;;;12.57;;
65368;SDS011;51970;53.484;49.488;2023-03-23T18:31:07;20.35;;;12.90;;
65368;SDS011;51970;53.484;49.488;2023-03-23T18:34:10;18.92;;;13.00;;
65368;SDS011;51970;53.484;49.488;2023-03-23T18:36:37;18.75;;;12.15;;
65368;SDS011;51970;53.484;49.488;2023-03-23T18:39:09;21.52;;;13.93;;
65368;SDS011;51970;53.484;49.488;2023-03-23T18:41:41;20.10;;;9.20;;
65368;SDS011;51970;53.484;49.488;2023-03-23T18:44:09;21.05;;;13.15;;
65368;SDS011;51970;53.484;49.488;2023-03-23T18:46:43;22.02;;;12.63;;
65368;SDS011;51970;53.484;49.488;2023-03-23T18:49:13;20.10;;;13.27;;
65368;SDS011;51970;53.484;49.488;2023-03-23T18:51:43;19.02;;;13.30;;
65368;SDS011;51970;53.484;49.488;2023-03-23T18:54:55;18.95;;;12.88;;